sensor_id;sensor_type;location;lat;lon;timestamp;pressure;altitude;pressure_sealevel;temperature;humidity
34034;BME280;63481;52.588;22.472;2022-10-16T00:00:02;100374.78;;;13.50;76.26
34034;BME280;63481;52.588;22.472;2022-10-16T00:00:39;100369.34;;;13.47;76.30
34034;BME280;63481;52.588;22.472;2022-10-16T00:01:15;100375.89;;;13.42;76.60
34034;BME280;63481;52.588;22.472;2022-10-16T00:01:47;100370.22;;;13.41;76.59
34034;BME280;63481;52.588;22.472;2022-10-16T00:02:18;100372.91;;;13.41;76.62
34034;BME280;63481;52.588;22.472;2022-10-16T00:02:50;100373.22;;;13.42;76.56
34034;BME280;63481;52.588;22.472;2022-10-16T00:03:21;100373.73;;;13.42;76.60
34034;BME280;63481;52.588;22.472;2022-10-16T00:03:53;100371.18;;;13.38;76.72
34034;BME280;63481;52.588;22.472;2022-10-16T00:04:25;100374.17;;;13.39;76.70
34034;BME280;63481;52.588;22.472;2022-10-16T00:04:57;100368.50;;;13.38;76.74
34034;BME280;63481;52.588;22.472;2022-10-16T00:05:28;100372.91;;;13.41;76.61
34034;BME280;63481;52.588;22.472;2022-10-16T00:06:01;100375.44;;;13.36;76.75
34034;BME280;63481;52.588;22.472;2022-10-16T00:06:32;100368.22;;;13.37;76.71
34034;BME280;63481;52.588;22.472;2022-10-16T00:07:04;100374.84;;;13.34;76.84
34034;BME280;63481;52.588;22.472;2022-10-16T00:07:36;100375.71;;;13.37;76.71
34034;BME280;63481;52.588;22.472;2022-10-16T00:08:08;100374.48;;;13.40;76.63
34034;BME280;63481;52.588;22.472;2022-10-16T00:08:40;100374.30;;;13.35;76.82
34034;BME280;63481;52.588;22.472;2022-10-16T00:09:13;100378.31;;;13.35;76.82
34034;BME280;63481;52.588;22.472;2022-10-16T00:09:45;100372.39;;;13.42;76.55
34034;BME280;63481;52.588;22.472;2022-10-16T00:10:17;100374.17;;;13.39;76.64
34034;BME280;63481;52.588;22.472;2022-10-16T00:10:48;100376.18;;;13.34;76.81
34034;BME280;63481;52.588;22.472;2022-10-16T00:11:23;100374.53;;;13.33;76.86
34034;BME280;63481;52.588;22.472;2022-10-16T00:11:55;100373.78;;;13.35;76.80
34034;BME280;63481;52.588;22.472;2022-10-16T00:12:26;100377.34;;;13.29;76.93
34034;BME280;63481;52.588;22.472;2022-10-16T00:12:58;100376.23;;;13.28;77.04
34034;BME280;63481;52.588;22.472;2022-10-16T00:13:31;100357.17;;;13.18;77.02
34034;BME280;63481;52.588;22.472;2022-10-16T00:14:06;100372.21;;;13.28;77.11
34034;BME280;63481;52.588;22.472;2022-10-16T00:14:38;100377.06;;;13.28;77.08
34034;BME280;63481;52.588;22.472;2022-10-16T00:15:11;100379.94;;;13.27;77.12
34034;BME280;63481;52.588;22.472;2022-10-16T00:15:43;100375.48;;;13.30;76.97
34034;BME280;63481;52.588;22.472;2022-10-16T00:16:15;100376.82;;;13.30;76.98
34034;BME280;63481;52.588;22.472;2022-10-16T00:16:47;100379.50;;;13.30;76.96
34034;BME280;63481;52.588;22.472;2022-10-16T00:17:18;100364.62;;;13.25;77.01
34034;BME280;63481;52.588;22.472;2022-10-16T00:17:50;100375.64;;;13.26;77.12
34034;BME280;63481;52.588;22.472;2022-10-16T00:18:21;100353.00;;;13.13;77.11
34034;BME280;63481;52.588;22.472;2022-10-16T00:18:53;100351.95;;;13.13;77.30
34034;BME280;63481;52.588;22.472;2022-10-16T00:19:25;100377.70;;;13.24;77.19
34034;BME280;63481;52.588;22.472;2022-10-16T00:19:57;100379.86;;;13.24;77.17
34034;BME280;63481;52.588;22.472;2022-10-16T00:20:29;100378.36;;;13.19;77.33
34034;BME280;63481;52.588;22.472;2022-10-16T00:21:08;100383.41;;;13.18;77.41
34034;BME280;63481;52.588;22.472;2022-10-16T00:21:40;100379.78;;;13.22;77.21
34034;BME280;63481;52.588;22.472;2022-10-16T00:22:11;100362.06;;;13.11;77.19
34034;BME280;63481;52.588;22.472;2022-10-16T00:22:43;100362.06;;;13.11;77.19
34034;BME280;63481;52.588;22.472;2022-10-16T00:23:15;100373.60;;;13.21;77.08
34034;BME280;63481;52.588;22.472;2022-10-16T00:23:49;100372.50;;;13.20;77.03
34034;BME280;63481;52.588;22.472;2022-10-16T00:24:20;100381.51;;;13.25;77.05
34034;BME280;63481;52.588;22.472;2022-10-16T00:24:52;100382.85;;;13.25;77.04
34034;BME280;63481;52.588;22.472;2022-10-16T00:25:42;100385.99;;;13.31;76.83
34034;BME280;63481;52.588;22.472;2022-10-16T00:26:15;100362.06;;;13.11;77.31
34034;BME280;63481;52.588;22.472;2022-10-16T00:26:49;100384.39;;;13.24;77.06
34034;BME280;63481;52.588;22.472;2022-10-16T00:27:21;100387.53;;;13.21;77.16
34034;BME280;63481;52.588;22.472;2022-10-16T00:27:53;100387.53;;;13.21;77.16
34034;BME280;63481;52.588;22.472;2022-10-16T00:28:25;100383.95;;;13.27;76.91
34034;BME280;63481;52.588;22.472;2022-10-16T00:28:58;100374.78;;;13.16;77.01
34034;BME280;63481;52.588;22.472;2022-10-16T00:29:29;100374.78;;;13.16;77.01
34034;BME280;63481;52.588;22.472;2022-10-16T00:30:02;100361.83;;;13.13;77.09
34034;BME280;63481;52.588;22.472;2022-10-16T00:30:39;100383.80;;;13.22;76.96
34034;BME280;63481;52.588;22.472;2022-10-16T00:31:11;100383.80;;;13.22;76.96
34034;BME280;63481;52.588;22.472;2022-10-16T00:31:43;100363.92;;;13.11;77.18
34034;BME280;63481;52.588;22.472;2022-10-16T00:32:15;100391.55;;;13.21;77.13
34034;BME280;63481;52.588;22.472;2022-10-16T00:32:47;100371.77;;;13.06;77.52
34034;BME280;63481;52.588;22.472;2022-10-16T00:33:19;100371.77;;;13.06;77.52
34034;BME280;63481;52.588;22.472;2022-10-16T00:33:51;100378.80;;;13.07;77.23
34034;BME280;63481;52.588;22.472;2022-10-16T00:34:22;100378.80;;;13.07;77.23
34034;BME280;63481;52.588;22.472;2022-10-16T00:34:54;100370.22;;;13.07;77.23
34034;BME280;63481;52.588;22.472;2022-10-16T00:35:25;100370.22;;;13.07;77.23
34034;BME280;63481;52.588;22.472;2022-10-16T00:35:58;100385.81;;;13.17;77.22
34034;BME280;63481;52.588;22.472;2022-10-16T00:36:31;100385.30;;;13.18;77.21
34034;BME280;63481;52.588;22.472;2022-10-16T00:37:03;100388.56;;;13.20;76.86
34034;BME280;63481;52.588;22.472;2022-10-16T00:37:35;100380.92;;;13.23;76.99
34034;BME280;63481;52.588;22.472;2022-10-16T00:38:07;100383.16;;;13.26;76.81
34034;BME280;63481;52.588;22.472;2022-10-16T00:38:39;100383.88;;;13.24;76.90
34034;BME280;63481;52.588;22.472;2022-10-16T00:39:10;100382.70;;;13.20;76.96
34034;BME280;63481;52.588;22.472;2022-10-16T00:39:42;100393.41;;;13.20;77.03
34034;BME280;63481;52.588;22.472;2022-10-16T00:40:13;100388.69;;;13.16;77.24
34034;BME280;63481;52.588;22.472;2022-10-16T00:40:45;100394.13;;;13.18;77.15
34034;BME280;63481;52.588;22.472;2022-10-16T00:41:17;100380.81;;;13.11;77.20
34034;BME280;63481;52.588;22.472;2022-10-16T00:41:49;100388.02;;;13.11;77.42
34034;BME280;63481;52.588;22.472;2022-10-16T00:42:20;100387.19;;;13.10;77.43
34034;BME280;63481;52.588;22.472;2022-10-16T00:42:51;100390.11;;;13.09;77.49
34034;BME280;63481;52.588;22.472;2022-10-16T00:43:43;100370.03;;;12.93;77.52
34034;BME280;63481;52.588;22.472;2022-10-16T00:44:45;100390.92;;;13.09;77.35
34034;BME280;63481;52.588;22.472;2022-10-16T00:45:13;100374.48;;;12.99;77.48
34034;BME280;63481;52.588;22.472;2022-10-16T00:45:45;100374.48;;;12.99;77.48
34034;BME280;63481;52.588;22.472;2022-10-16T00:46:54;100394.36;;;13.01;77.74
34034;BME280;63481;52.588;22.472;2022-10-16T00:47:32;100397.55;;;13.07;77.67
34034;BME280;63481;52.588;22.472;2022-10-16T00:48:06;100398.02;;;13.06;77.67
34034;BME280;63481;52.588;22.472;2022-10-16T00:48:38;100399.20;;;13.01;77.85
34034;BME280;63481;52.588;22.472;2022-10-16T00:49:11;100396.45;;;12.99;77.97
34034;BME280;63481;52.588;22.472;2022-10-16T00:49:44;100395.73;;;12.94;78.10
34034;BME280;63481;52.588;22.472;2022-10-16T00:50:53;100381.45;;;12.91;77.54
34034;BME280;63481;52.588;22.472;2022-10-16T00:51:31;100381.45;;;12.91;77.54
34034;BME280;63481;52.588;22.472;2022-10-16T00:52:03;100396.33;;;12.96;77.90
34034;BME280;63481;52.588;22.472;2022-10-16T00:52:35;100394.36;;;13.01;77.75
34034;BME280;63481;52.588;22.472;2022-10-16T00:53:08;100388.77;;;13.02;77.59
34034;BME280;63481;52.588;22.472;2022-10-16T00:53:39;100401.09;;;13.10;77.55
34034;BME280;63481;52.588;22.472;2022-10-16T00:54:14;100399.47;;;13.09;77.55
34034;BME280;63481;52.588;22.472;2022-10-16T00:54:47;100398.42;;;13.10;77.44
34034;BME280;63481;52.588;22.472;2022-10-16T00:55:21;100379.75;;;12.97;77.47
34034;BME280;63481;52.588;22.472;2022-10-16T00:55:53;100379.75;;;12.97;77.47
34034;BME280;63481;52.588;22.472;2022-10-16T00:56:25;100402.35;;;13.07;77.60
34034;BME280;63481;52.588;22.472;2022-10-16T00:57:00;100398.02;;;13.06;77.61
34034;BME280;63481;52.588;22.472;2022-10-16T00:57:32;100394.44;;;13.03;77.67
34034;BME280;63481;52.588;22.472;2022-10-16T00:58:04;100398.45;;;13.03;77.81
34034;BME280;63481;52.588;22.472;2022-10-16T00:58:36;100406.17;;;13.02;77.86
34034;BME280;63481;52.588;22.472;2022-10-16T00:59:19;100401.33;;;13.08;77.59
34034;BME280;63481;52.588;22.472;2022-10-16T00:59:49;100402.23;;;13.11;77.45
34034;BME280;63481;52.588;22.472;2022-10-16T01:00:24;100406.69;;;13.02;77.77
34034;BME280;63481;52.588;22.472;2022-10-16T01:00:55;100399.33;;;12.97;77.86
34034;BME280;63481;52.588;22.472;2022-10-16T01:01:28;100385.30;;;12.86;78.38
34034;BME280;63481;52.588;22.472;2022-10-16T01:02:00;100385.30;;;12.86;78.38
34034;BME280;63481;52.588;22.472;2022-10-16T01:02:33;100392.98;;;12.92;77.92
34034;BME280;63481;52.588;22.472;2022-10-16T01:03:58;100407.66;;;12.98;77.94
34034;BME280;63481;52.588;22.472;2022-10-16T01:04:33;100404.48;;;12.99;77.97
34034;BME280;63481;52.588;22.472;2022-10-16T01:05:05;100383.68;;;12.85;78.10
34034;BME280;63481;52.588;22.472;2022-10-16T01:05:44;100408.84;;;12.93;78.21
34034;BME280;63481;52.588;22.472;2022-10-16T01:06:24;100407.36;;;12.97;78.10
34034;BME280;63481;52.588;22.472;2022-10-16T01:08:08;100409.13;;;12.94;78.11
34034;BME280;63481;52.588;22.472;2022-10-16T01:08:44;100409.72;;;12.96;78.08
34034;BME280;63481;52.588;22.472;2022-10-16T01:09:14;100401.80;;;12.99;78.16
34034;BME280;63481;52.588;22.472;2022-10-16T01:10:35;100407.59;;;12.96;78.02
34034;BME280;63481;52.588;22.472;2022-10-16T01:12:01;100411.60;;;12.96;77.96
34034;BME280;63481;52.588;22.472;2022-10-16T01:13:33;100412.20;;;12.98;77.97
34034;BME280;63481;52.588;22.472;2022-10-16T01:14:11;100399.01;;;12.96;78.05
34034;BME280;63481;52.588;22.472;2022-10-16T01:14:55;100405.11;;;12.94;78.10
34034;BME280;63481;52.588;22.472;2022-10-16T01:15:29;100409.13;;;12.94;78.10
34034;BME280;63481;52.588;22.472;2022-10-16T01:16:06;100407.42;;;12.91;78.27
34034;BME280;63481;52.588;22.472;2022-10-16T01:16:43;100408.30;;;12.94;78.30
34034;BME280;63481;52.588;22.472;2022-10-16T01:17:21;100400.19;;;12.91;78.28
34034;BME280;63481;52.588;22.472;2022-10-16T01:17:52;100406.80;;;12.89;78.46
34034;BME280;63481;52.588;22.472;2022-10-16T01:18:37;100390.17;;;12.80;78.26
34034;BME280;63481;52.588;22.472;2022-10-16T01:19:58;100400.19;;;12.91;78.28
34034;BME280;63481;52.588;22.472;2022-10-16T01:20:28;100406.37;;;12.92;78.29
34034;BME280;63481;52.588;22.472;2022-10-16T01:21:05;100407.31;;;12.88;78.36
34034;BME280;63481;52.588;22.472;2022-10-16T01:21:43;100396.08;;;12.80;78.15
34034;BME280;63481;52.588;22.472;2022-10-16T01:22:16;100396.08;;;12.80;78.15
34034;BME280;63481;52.588;22.472;2022-10-16T01:23:14;100392.66;;;12.82;78.03
34034;BME280;63481;52.588;22.472;2022-10-16T01:24:08;100384.46;;;12.77;78.49
34034;BME280;63481;52.588;22.472;2022-10-16T01:24:43;100384.46;;;12.77;78.49
34034;BME280;63481;52.588;22.472;2022-10-16T01:25:30;100389.42;;;12.73;78.89
34034;BME280;63481;52.588;22.472;2022-10-16T01:27:56;100406.63;;;12.84;78.67
34034;BME280;63481;52.588;22.472;2022-10-16T01:29:21;100407.29;;;12.79;78.89
34034;BME280;63481;52.588;22.472;2022-10-16T01:29:59;100404.14;;;12.73;79.10
34034;BME280;63481;52.588;22.472;2022-10-16T01:30:32;100403.11;;;12.74;79.10
34034;BME280;63481;52.588;22.472;2022-10-16T01:31:05;100404.73;;;12.75;79.10
34034;BME280;63481;52.588;22.472;2022-10-16T01:31:39;100400.13;;;12.73;79.32
34034;BME280;63481;52.588;22.472;2022-10-16T01:32:40;100400.13;;;12.73;79.32
34034;BME280;63481;52.588;22.472;2022-10-16T01:33:29;100401.30;;;12.68;79.33
34034;BME280;63481;52.588;22.472;2022-10-16T01:34:08;100405.70;;;12.72;79.26
34034;BME280;63481;52.588;22.472;2022-10-16T01:34:47;100401.69;;;12.72;79.25
34034;BME280;63481;52.588;22.472;2022-10-16T01:36:02;100410.31;;;12.74;79.14
34034;BME280;63481;52.588;22.472;2022-10-16T01:36:44;100410.23;;;12.71;79.25
34034;BME280;63481;52.588;22.472;2022-10-16T01:37:14;100407.16;;;12.68;79.37
34034;BME280;63481;52.588;22.472;2022-10-16T01:38:40;100412.11;;;12.64;79.54
34034;BME280;63481;52.588;22.472;2022-10-16T01:39:13;100413.53;;;12.67;79.46
34034;BME280;63481;52.588;22.472;2022-10-16T01:39:47;100416.02;;;12.68;79.45
34034;BME280;63481;52.588;22.472;2022-10-16T01:40:24;100412.28;;;12.69;79.38
34034;BME280;63481;52.588;22.472;2022-10-16T01:41:00;100417.63;;;12.69;79.39
34034;BME280;63481;52.588;22.472;2022-10-16T01:41:35;100415.53;;;12.62;79.59
34034;BME280;63481;52.588;22.472;2022-10-16T01:42:22;100421.62;;;12.60;79.75
34034;BME280;63481;52.588;22.472;2022-10-16T01:43:10;100419.63;;;12.65;79.61
34034;BME280;63481;52.588;22.472;2022-10-16T01:43:53;100403.14;;;12.52;79.99
34034;BME280;63481;52.588;22.472;2022-10-16T01:44:26;100403.14;;;12.52;79.99
34034;BME280;63481;52.588;22.472;2022-10-16T01:44:59;100423.70;;;12.58;79.83
34034;BME280;63481;52.588;22.472;2022-10-16T01:45:32;100421.64;;;12.53;80.01
34034;BME280;63481;52.588;22.472;2022-10-16T01:46:05;100426.14;;;12.60;79.85
34034;BME280;63481;52.588;22.472;2022-10-16T01:46:39;100422.30;;;12.65;79.67
34034;BME280;63481;52.588;22.472;2022-10-16T01:47:13;100428.99;;;12.65;79.61
34034;BME280;63481;52.588;22.472;2022-10-16T01:47:46;100425.14;;;12.70;79.47
34034;BME280;63481;52.588;22.472;2022-10-16T01:48:20;100406.42;;;12.54;79.34
34034;BME280;63481;52.588;22.472;2022-10-16T01:48:54;100406.42;;;12.54;79.34
34034;BME280;63481;52.588;22.472;2022-10-16T01:49:30;100427.56;;;12.62;79.70
34034;BME280;63481;52.588;22.472;2022-10-16T01:50:03;100426.38;;;12.58;79.81
34034;BME280;63481;52.588;22.472;2022-10-16T01:50:38;100423.06;;;12.56;79.71
34034;BME280;63481;52.588;22.472;2022-10-16T01:51:15;100425.14;;;12.54;80.19
34034;BME280;63481;52.588;22.472;2022-10-16T01:51:50;100425.14;;;12.54;80.19
34034;BME280;63481;52.588;22.472;2022-10-16T01:52:24;100428.42;;;12.56;79.95
34034;BME280;63481;52.588;22.472;2022-10-16T01:52:58;100418.86;;;12.58;79.80
34034;BME280;63481;52.588;22.472;2022-10-16T01:53:32;100406.90;;;12.44;79.91
34034;BME280;63481;52.588;22.472;2022-10-16T01:54:07;100407.41;;;12.44;80.25
34034;BME280;63481;52.588;22.472;2022-10-16T01:54:41;100407.41;;;12.44;80.25
34034;BME280;63481;52.588;22.472;2022-10-16T01:55:18;100420.96;;;12.49;80.12
34034;BME280;63481;52.588;22.472;2022-10-16T01:55:50;100427.65;;;12.49;80.19
34034;BME280;63481;52.588;22.472;2022-10-16T01:56:25;100427.56;;;12.46;80.25
34034;BME280;63481;52.588;22.472;2022-10-16T01:56:58;100424.46;;;12.49;80.16
34034;BME280;63481;52.588;22.472;2022-10-16T01:57:31;100423.95;;;12.50;80.15
34034;BME280;63481;52.588;22.472;2022-10-16T01:58:05;100429.30;;;12.50;80.12
34034;BME280;63481;52.588;22.472;2022-10-16T01:58:42;100423.63;;;12.49;80.10
34034;BME280;63481;52.588;22.472;2022-10-16T01:59:16;100425.48;;;12.48;80.13
34034;BME280;63481;52.588;22.472;2022-10-16T01:59:51;100421.89;;;12.45;80.25
34034;BME280;63481;52.588;22.472;2022-10-16T02:00:24;100420.47;;;12.43;80.30
34034;BME280;63481;52.588;22.472;2022-10-16T02:00:56;100423.14;;;12.43;80.32
34034;BME280;63481;52.588;22.472;2022-10-16T02:01:30;100422.83;;;12.42;80.36
34034;BME280;63481;52.588;22.472;2022-10-16T02:02:06;100422.74;;;12.39;80.44
34034;BME280;63481;52.588;22.472;2022-10-16T02:02:41;100422.46;;;12.38;80.50
34034;BME280;63481;52.588;22.472;2022-10-16T02:03:16;100427.30;;;12.39;80.49
34034;BME280;63481;52.588;22.472;2022-10-16T02:03:51;100424.39;;;12.40;80.46
34034;BME280;63481;52.588;22.472;2022-10-16T02:04:27;100428.09;;;12.39;80.47
34034;BME280;63481;52.588;22.472;2022-10-16T02:05:05;100428.09;;;12.39;80.47
34034;BME280;63481;52.588;22.472;2022-10-16T02:05:44;100433.78;;;12.34;80.64
34034;BME280;63481;52.588;22.472;2022-10-16T02:06:15;100411.34;;;12.19;80.70
34034;BME280;63481;52.588;22.472;2022-10-16T02:06:47;100411.34;;;12.19;80.70
34034;BME280;63481;52.588;22.472;2022-10-16T02:07:19;100431.33;;;12.32;80.82
34034;BME280;63481;52.588;22.472;2022-10-16T02:07:50;100428.14;;;12.33;80.82
34034;BME280;63481;52.588;22.472;2022-10-16T02:08:24;100430.59;;;12.34;80.74
34034;BME280;63481;52.588;22.472;2022-10-16T02:08:57;100425.88;;;12.36;80.73
34034;BME280;63481;52.588;22.472;2022-10-16T02:09:30;100403.83;;;12.19;80.77
34034;BME280;63481;52.588;22.472;2022-10-16T02:10:02;100433.49;;;12.33;80.79
34034;BME280;63481;52.588;22.472;2022-10-16T02:10:36;100429.57;;;12.35;80.68
34034;BME280;63481;52.588;22.472;2022-10-16T02:11:08;100428.14;;;12.33;80.75
34034;BME280;63481;52.588;22.472;2022-10-16T02:11:40;100430.68;;;12.37;80.69
34034;BME280;63481;52.588;22.472;2022-10-16T02:12:22;100426.24;;;12.40;80.55
34034;BME280;63481;52.588;22.472;2022-10-16T02:12:59;100425.73;;;12.40;80.53
34034;BME280;63481;52.588;22.472;2022-10-16T02:14:18;100420.95;;;12.33;80.44
34034;BME280;63481;52.588;22.472;2022-10-16T02:14:50;100426.47;;;12.38;80.54
34034;BME280;63481;52.588;22.472;2022-10-16T02:15:21;100430.81;;;12.33;80.68
34034;BME280;63481;52.588;22.472;2022-10-16T02:15:53;100434.00;;;12.32;80.74
34034;BME280;63481;52.588;22.472;2022-10-16T02:16:37;100435.67;;;12.27;80.79
34034;BME280;63481;52.588;22.472;2022-10-16T02:17:16;100435.67;;;12.27;80.79
34034;BME280;63481;52.588;22.472;2022-10-16T02:17:47;100434.84;;;12.26;81.05
34034;BME280;63481;52.588;22.472;2022-10-16T02:18:19;100439.82;;;12.23;81.17
34034;BME280;63481;52.588;22.472;2022-10-16T02:18:51;100432.59;;;12.23;81.18
34034;BME280;63481;52.588;22.472;2022-10-16T02:19:22;100420.20;;;12.13;80.73
34034;BME280;63481;52.588;22.472;2022-10-16T02:19:55;100420.20;;;12.13;80.73
34034;BME280;63481;52.588;22.472;2022-10-16T02:20:29;100435.58;;;12.24;81.17
34034;BME280;63481;52.588;22.472;2022-10-16T02:21:11;100435.27;;;12.23;81.20
34034;BME280;63481;52.588;22.472;2022-10-16T02:21:43;100431.26;;;12.23;81.18
34034;BME280;63481;52.588;22.472;2022-10-16T02:22:39;100438.66;;;12.28;80.70
34034;BME280;63481;52.588;22.472;2022-10-16T02:22:51;100438.66;;;12.28;80.70
34034;BME280;63481;52.588;22.472;2022-10-16T02:24:54;100431.91;;;12.19;81.24
34034;BME280;63481;52.588;22.472;2022-10-16T02:25:29;100430.56;;;12.19;81.21
34034;BME280;63481;52.588;22.472;2022-10-16T02:26:03;100426.78;;;12.17;81.34
34034;BME280;63481;52.588;22.472;2022-10-16T02:26:49;100428.41;;;12.18;81.29
34034;BME280;63481;52.588;22.472;2022-10-16T02:27:34;100431.08;;;12.18;81.37
34034;BME280;63481;52.588;22.472;2022-10-16T02:28:26;100427.71;;;12.14;81.46
34034;BME280;63481;52.588;22.472;2022-10-16T02:28:57;100426.15;;;12.15;81.38
34034;BME280;63481;52.588;22.472;2022-10-16T02:29:29;100426.47;;;12.16;81.33
34034;BME280;63481;52.588;22.472;2022-10-16T02:30:58;100427.81;;;12.10;81.52
34034;BME280;63481;52.588;22.472;2022-10-16T02:31:34;100419.00;;;12.09;81.54
34034;BME280;63481;52.588;22.472;2022-10-16T02:32:08;100422.27;;;12.11;81.48
34034;BME280;63481;52.588;22.472;2022-10-16T02:32:43;100421.55;;;12.07;81.57
34034;BME280;63481;52.588;22.472;2022-10-16T02:33:17;100421.87;;;12.08;81.57
34034;BME280;63481;52.588;22.472;2022-10-16T02:33:51;100418.28;;;12.05;81.63
34034;BME280;63481;52.588;22.472;2022-10-16T02:34:25;100427.54;;;12.02;81.76
34034;BME280;63481;52.588;22.472;2022-10-16T02:34:59;100428.28;;;12.00;81.81
34034;BME280;63481;52.588;22.472;2022-10-16T02:35:31;100420.67;;;11.97;81.86
34034;BME280;63481;52.588;22.472;2022-10-16T02:36:03;100421.19;;;11.97;81.93
34034;BME280;63481;52.588;22.472;2022-10-16T02:36:36;100414.50;;;12.03;81.76
34034;BME280;63481;52.588;22.472;2022-10-16T02:37:08;100418.19;;;12.02;81.75
34034;BME280;63481;52.588;22.472;2022-10-16T02:37:40;100422.20;;;12.02;81.76
34034;BME280;63481;52.588;22.472;2022-10-16T02:38:14;100424.05;;;12.02;81.78
34034;BME280;63481;52.588;22.472;2022-10-16T02:38:46;100423.53;;;12.02;81.76
34034;BME280;63481;52.588;22.472;2022-10-16T02:39:19;100424.67;;;12.04;81.68
34034;BME280;63481;52.588;22.472;2022-10-16T02:39:52;100422.00;;;12.04;81.67
34034;BME280;63481;52.588;22.472;2022-10-16T02:40:25;100424.96;;;12.05;81.66
34034;BME280;63481;52.588;22.472;2022-10-16T02:40:57;100426.72;;;12.02;81.78
34034;BME280;63481;52.588;22.472;2022-10-16T02:41:28;100428.59;;;12.01;81.77
34034;BME280;63481;52.588;22.472;2022-10-16T02:42:00;100427.87;;;11.97;81.87
34034;BME280;63481;52.588;22.472;2022-10-16T02:42:37;100427.87;;;11.97;81.93
34034;BME280;63481;52.588;22.472;2022-10-16T02:43:09;100426.03;;;11.90;82.09
34034;BME280;63481;52.588;22.472;2022-10-16T02:43:41;100426.03;;;11.90;82.09
34034;BME280;63481;52.588;22.472;2022-10-16T02:44:12;100425.70;;;11.96;82.10
34034;BME280;63481;52.588;22.472;2022-10-16T02:44:44;100428.92;;;11.96;82.08
34034;BME280;63481;52.588;22.472;2022-10-16T02:45:16;100425.33;;;11.92;82.15
34034;BME280;63481;52.588;22.472;2022-10-16T02:45:48;100422.23;;;11.96;82.08
34034;BME280;63481;52.588;22.472;2022-10-16T02:46:20;100425.20;;;11.97;82.04
34034;BME280;63481;52.588;22.472;2022-10-16T02:46:52;100422.94;;;11.93;82.14
34034;BME280;63481;52.588;22.472;2022-10-16T02:47:23;100421.52;;;11.91;82.26
34034;BME280;63481;52.588;22.472;2022-10-16T02:47:55;100421.83;;;11.92;82.27
34034;BME280;63481;52.588;22.472;2022-10-16T02:48:26;100427.69;;;11.91;82.29
34034;BME280;63481;52.588;22.472;2022-10-16T02:48:58;100422.94;;;11.93;82.26
34034;BME280;63481;52.588;22.472;2022-10-16T02:49:30;100424.08;;;11.95;82.15
34034;BME280;63481;52.588;22.472;2022-10-16T02:50:01;100423.76;;;12.01;81.98
34034;BME280;63481;52.588;22.472;2022-10-16T02:50:33;100424.87;;;12.02;81.90
34034;BME280;63481;52.588;22.472;2022-10-16T02:51:06;100428.28;;;12.00;81.95
34034;BME280;63481;52.588;22.472;2022-10-16T02:51:37;100425.09;;;12.01;81.94
34034;BME280;63481;52.588;22.472;2022-10-16T02:52:09;100423.86;;;11.97;82.02
34034;BME280;63481;52.588;22.472;2022-10-16T02:52:40;100423.67;;;11.98;81.97
34034;BME280;63481;52.588;22.472;2022-10-16T02:53:12;100417.91;;;12.01;81.85
34034;BME280;63481;52.588;22.472;2022-10-16T02:53:44;100422.70;;;12.02;81.87
34034;BME280;63481;52.588;22.472;2022-10-16T02:54:15;100418.32;;;11.98;81.96
34034;BME280;63481;52.588;22.472;2022-10-16T02:54:47;100420.67;;;11.97;81.99
34034;BME280;63481;52.588;22.472;2022-10-16T02:55:18;100425.00;;;11.98;81.97
34034;BME280;63481;52.588;22.472;2022-10-16T02:55:50;100413.77;;;11.99;81.90
34034;BME280;63481;52.588;22.472;2022-10-16T02:56:21;100414.69;;;12.02;81.86
34034;BME280;63481;52.588;22.472;2022-10-16T02:56:53;100409.98;;;11.97;82.27
34034;BME280;63481;52.588;22.472;2022-10-16T02:57:24;100409.98;;;11.97;82.27
34034;BME280;63481;52.588;22.472;2022-10-16T02:57:56;100420.45;;;11.99;81.92
34034;BME280;63481;52.588;22.472;2022-10-16T02:58:28;100411.22;;;12.01;81.82
34034;BME280;63481;52.588;22.472;2022-10-16T02:58:59;100411.41;;;12.00;81.83
34034;BME280;63481;52.588;22.472;2022-10-16T02:59:30;100414.50;;;11.97;82.00
34034;BME280;63481;52.588;22.472;2022-10-16T03:00:06;100414.82;;;11.98;81.98
34034;BME280;63481;52.588;22.472;2022-10-16T03:00:37;100415.65;;;11.98;81.94
34034;BME280;63481;52.588;22.472;2022-10-16T03:01:09;100415.52;;;12.02;81.80
34034;BME280;63481;52.588;22.472;2022-10-16T03:01:42;100419.02;;;12.03;81.77
34034;BME280;63481;52.588;22.472;2022-10-16T03:02:13;100417.77;;;12.05;81.67
34034;BME280;63481;52.588;22.472;2022-10-16T03:02:45;100423.44;;;12.00;81.76
34034;BME280;63481;52.588;22.472;2022-10-16T03:03:17;100419.43;;;12.00;81.79
34034;BME280;63481;52.588;22.472;2022-10-16T03:03:49;100425.09;;;12.01;81.80
34034;BME280;63481;52.588;22.472;2022-10-16T03:04:20;100421.79;;;11.99;81.80
34034;BME280;63481;52.588;22.472;2022-10-16T03:04:52;100415.32;;;12.04;81.72
34034;BME280;63481;52.588;22.472;2022-10-16T03:05:23;100419.33;;;12.04;81.68
34034;BME280;63481;52.588;22.472;2022-10-16T03:05:55;100420.03;;;12.02;81.72
34034;BME280;63481;52.588;22.472;2022-10-16T03:06:27;100412.02;;;12.02;81.70
34034;BME280;63481;52.588;22.472;2022-10-16T03:06:58;100421.28;;;11.99;81.80
34034;BME280;63481;52.588;22.472;2022-10-16T03:07:30;100417.78;;;11.99;81.78
34034;BME280;63481;52.588;22.472;2022-10-16T03:08:01;100420.67;;;11.97;81.86
34034;BME280;63481;52.588;22.472;2022-10-16T03:08:33;100423.34;;;11.97;81.90
34034;BME280;63481;52.588;22.472;2022-10-16T03:09:04;100418.42;;;11.94;82.01
34034;BME280;63481;52.588;22.472;2022-10-16T03:09:35;100419.56;;;11.96;81.99